CFE59U EGLC-LESO
Flight info
| Callsign | CFE59U |
|---|---|
| Flight time | N/A |
| Altitude | 25000 |
| Route | SOQQA M87 EKNIV M91 LYD UM189 WAFFU/N0453F320 DCT SITET/N0453F330 UN859 SOPIL DCT BALAN DCT LMG DCT UVELI DCT OSMOB DCT VAVIX DCT BTZ/N0357F190 R10 URUNA P181 SSN |
| Aircraft | E190/M-SDE3GILORVW/S |
Departure
| Time | N/A |
|---|---|
| Airport | London City Airport (EGLC) |
Arrival
| Time | 2026-04-12 11:29 |
|---|---|
| Airport | San Sebastián Airport (LESO) |
| Time | Latitude | Longitude | Altitude | Speed | Heading |
|---|---|---|---|---|---|
| 2026-04-12 10:56 | 45.61239 | 0.77899 | 31117 ft | 407 kts | 220° |
| 2026-04-12 10:56 | 45.56886 | 0.72669 | 31319 ft | 408 kts | 220° |
| 2026-04-12 10:57 | 45.54698 | 0.70085 | 31474 ft | 409 kts | 220° |
| 2026-04-12 10:57 | 45.52501 | 0.67503 | 31663 ft | 410 kts | 220° |
| 2026-04-12 10:57 | 45.50291 | 0.64912 | 31846 ft | 412 kts | 220° |
| 2026-04-12 10:57 | 45.48068 | 0.62306 | 32007 ft | 416 kts | 220° |
| 2026-04-12 10:58 | 45.45822 | 0.59673 | 32122 ft | 421 kts | 220° |
| 2026-04-12 10:58 | 45.43556 | 0.57017 | 32292 ft | 423 kts | 220° |
| 2026-04-12 10:58 | 45.41276 | 0.54354 | 32513 ft | 425 kts | 220° |
| 2026-04-12 10:58 | 45.38988 | 0.51685 | 32722 ft | 426 kts | 220° |
| 2026-04-12 10:59 | 45.36689 | 0.49005 | 32856 ft | 429 kts | 220° |
| 2026-04-12 10:59 | 45.34382 | 0.46311 | 33083 ft | 426 kts | 220° |
| 2026-04-12 10:59 | 45.29792 | 0.40957 | 33131 ft | 429 kts | 220° |
| 2026-04-12 11:00 | 45.25169 | 0.35566 | 33122 ft | 431 kts | 220° |
| 2026-04-12 11:00 | 45.20529 | 0.30172 | 33119 ft | 431 kts | 220° |
| 2026-04-12 11:01 | 45.15883 | 0.24781 | 33121 ft | 432 kts | 220° |
| 2026-04-12 11:01 | 45.11230 | 0.19395 | 33108 ft | 432 kts | 219° |
| 2026-04-12 11:02 | 45.06582 | 0.14024 | 33095 ft | 431 kts | 219° |
| 2026-04-12 11:02 | 45.01939 | 0.08660 | 33094 ft | 431 kts | 220° |
| 2026-04-12 11:03 | 44.97314 | 0.03282 | 33099 ft | 431 kts | 220° |
| 2026-04-12 11:03 | 44.93458 | -0.01193 | 33566 ft | 429 kts | 218° |
| 2026-04-12 11:04 | 44.91191 | -0.03838 | 32851 ft | 417 kts | 218° |
| 2026-04-12 11:04 | 44.88372 | -0.07109 | 32427 ft | 374 kts | 217° |
| 2026-04-12 11:04 | 44.84430 | -0.11635 | 31879 ft | 360 kts | 217° |
| 2026-04-12 11:05 | 44.82498 | -0.13854 | 31329 ft | 357 kts | 217° |
| 2026-04-12 11:05 | 44.81223 | -0.15322 | 31177 ft | 340 kts | 217° |
| 2026-04-12 11:05 | 44.77659 | -0.19418 | 31162 ft | 329 kts | 217° |
| 2026-04-12 11:06 | 44.74175 | -0.23426 | 31263 ft | 319 kts | 217° |
| 2026-04-12 11:06 | 44.72454 | -0.25405 | 31155 ft | 319 kts | 217° |
| 2026-04-12 11:06 | 44.70759 | -0.27360 | 31267 ft | 313 kts | 217° |
| 2026-04-12 11:07 | 44.67406 | -0.31214 | 31249 ft | 310 kts | 217° |
| 2026-04-12 11:07 | 44.64071 | -0.34987 | 31216 ft | 306 kts | 213° |
| 2026-04-12 11:08 | 44.60597 | -0.38290 | 31217 ft | 301 kts | 212° |
| 2026-04-12 11:08 | 44.56996 | -0.41724 | 31290 ft | 321 kts | 212° |
| 2026-04-12 11:09 | 44.53214 | -0.45329 | 31268 ft | 342 kts | 212° |
| 2026-04-12 11:09 | 44.51212 | -0.47243 | 31215 ft | 354 kts | 213° |
| 2026-04-12 11:09 | 44.49152 | -0.49221 | 31214 ft | 364 kts | 213° |
| 2026-04-12 11:10 | 44.44847 | -0.53270 | 31205 ft | 381 kts | 211° |
| 2026-04-12 11:10 | 44.40523 | -0.57277 | 31133 ft | 359 kts | 213° |
| 2026-04-12 11:11 | 44.36499 | -0.61202 | 31138 ft | 349 kts | 213° |
| 2026-04-12 11:11 | 44.32518 | -0.65060 | 31063 ft | 350 kts | 213° |
| 2026-04-12 11:12 | 44.30513 | -0.66986 | 30735 ft | 350 kts | 212° |
| 2026-04-12 11:12 | 44.28507 | -0.68893 | 30503 ft | 348 kts | 212° |
| 2026-04-12 11:12 | 44.24578 | -0.72804 | 30125 ft | 354 kts | 214° |
| 2026-04-12 11:13 | 44.22596 | -0.74843 | 29661 ft | 352 kts | 214° |
| 2026-04-12 11:13 | 44.20619 | -0.76866 | 29176 ft | 354 kts | 214° |
| 2026-04-12 11:13 | 44.18634 | -0.78911 | 28653 ft | 355 kts | 214° |
| 2026-04-12 11:13 | 44.16645 | -0.80949 | 28193 ft | 356 kts | 214° |
| 2026-04-12 11:14 | 44.14641 | -0.82993 | 27724 ft | 357 kts | 214° |
| 2026-04-12 11:14 | 44.12639 | -0.85030 | 27243 ft | 356 kts | 214° |
| 2026-04-12 11:14 | 44.10646 | -0.87055 | 26776 ft | 354 kts | 214° |
| 2026-04-12 11:14 | 44.08663 | -0.89065 | 26307 ft | 352 kts | 214° |
| 2026-04-12 11:15 | 44.06686 | -0.91062 | 25844 ft | 350 kts | 214° |
| 2026-04-12 11:15 | 44.04714 | -0.93045 | 25383 ft | 349 kts | 214° |
| 2026-04-12 11:15 | 44.02755 | -0.95030 | 24921 ft | 348 kts | 214° |
| 2026-04-12 11:15 | 44.00798 | -0.97009 | 24461 ft | 348 kts | 214° |
| 2026-04-12 11:16 | 43.98859 | -0.98964 | 23995 ft | 350 kts | 214° |
| 2026-04-12 11:16 | 43.96894 | -1.00949 | 23483 ft | 348 kts | 214° |
| 2026-04-12 11:16 | 43.94949 | -1.02903 | 23065 ft | 343 kts | 214° |
| 2026-04-12 11:16 | 43.93015 | -1.04837 | 22610 ft | 342 kts | 214° |
| 2026-04-12 11:17 | 43.91090 | -1.06766 | 22163 ft | 341 kts | 215° |
| 2026-04-12 11:17 | 43.89174 | -1.08685 | 21715 ft | 339 kts | 215° |
| 2026-04-12 11:17 | 43.87267 | -1.10594 | 21269 ft | 337 kts | 216° |
| 2026-04-12 11:17 | 43.85370 | -1.12494 | 20824 ft | 336 kts | 216° |
| 2026-04-12 11:18 | 43.83485 | -1.14381 | 20385 ft | 334 kts | 216° |
| 2026-04-12 11:18 | 43.81605 | -1.16262 | 19919 ft | 333 kts | 217° |
| 2026-04-12 11:18 | 43.79735 | -1.18132 | 19509 ft | 331 kts | 217° |
| 2026-04-12 11:18 | 43.77867 | -1.19998 | 19065 ft | 331 kts | 217° |
| 2026-04-12 11:19 | 43.76000 | -1.21862 | 18607 ft | 330 kts | 218° |
| 2026-04-12 11:19 | 43.74149 | -1.23709 | 18122 ft | 327 kts | 218° |
| 2026-04-12 11:19 | 43.72320 | -1.25533 | 17729 ft | 322 kts | 218° |
| 2026-04-12 11:19 | 43.70503 | -1.27343 | 17310 ft | 322 kts | 218° |
| 2026-04-12 11:20 | 43.68687 | -1.29152 | 16891 ft | 322 kts | 218° |
| 2026-04-12 11:20 | 43.66873 | -1.30959 | 16459 ft | 321 kts | 218° |
| 2026-04-12 11:20 | 43.65037 | -1.32789 | 15572 ft | 328 kts | 217° |
| 2026-04-12 11:20 | 43.63180 | -1.34646 | 14739 ft | 331 kts | 218° |
| 2026-04-12 11:21 | 43.61424 | -1.36709 | 13927 ft | 333 kts | 228° |
| 2026-04-12 11:21 | 43.60274 | -1.39464 | 13037 ft | 337 kts | 253° |
| 2026-04-12 11:21 | 43.59869 | -1.42645 | 12190 ft | 338 kts | 262° |
| 2026-04-12 11:21 | 43.59497 | -1.45841 | 11357 ft | 337 kts | 257° |
| 2026-04-12 11:22 | 43.58825 | -1.48934 | 10554 ft | 337 kts | 249° |
| 2026-04-12 11:22 | 43.57791 | -1.51785 | 9711 ft | 325 kts | 238° |
| 2026-04-12 11:22 | 43.56386 | -1.54128 | 8821 ft | 310 kts | 228° |
| 2026-04-12 11:22 | 43.54905 | -1.56222 | 7951 ft | 300 kts | 227° |
| 2026-04-12 11:23 | 43.53459 | -1.58185 | 7126 ft | 292 kts | 226° |
| 2026-04-12 11:23 | 43.51998 | -1.60085 | 6292 ft | 286 kts | 226° |
| 2026-04-12 11:23 | 43.50877 | -1.62282 | 5421 ft | 279 kts | 252° |
| 2026-04-12 11:23 | 43.50641 | -1.64863 | 4546 ft | 271 kts | 282° |
| 2026-04-12 11:24 | 43.51377 | -1.67114 | 4154 ft | 246 kts | 316° |
| 2026-04-12 11:24 | 43.52724 | -1.68202 | 4158 ft | 213 kts | 353° |
| 2026-04-12 11:24 | 43.54090 | -1.67867 | 4093 ft | 198 kts | 36° |
| 2026-04-12 11:24 | 43.54837 | -1.66352 | 4014 ft | 196 kts | 82° |
| 2026-04-12 11:25 | 43.54521 | -1.64575 | 4065 ft | 197 kts | 131° |
| 2026-04-12 11:25 | 43.53326 | -1.63695 | 4273 ft | 203 kts | 180° |
| 2026-04-12 11:25 | 43.51983 | -1.64214 | 4330 ft | 204 kts | 215° |
| 2026-04-12 11:25 | 43.50798 | -1.65164 | 4666 ft | 194 kts | 212° |
| 2026-04-12 11:26 | 43.49581 | -1.66066 | 4924 ft | 206 kts | 212° |
| 2026-04-12 11:26 | 43.48325 | -1.66995 | 4877 ft | 201 kts | 212° |
| 2026-04-12 11:26 | 43.47097 | -1.67904 | 4537 ft | 199 kts | 212° |
| 2026-04-12 11:26 | 43.45887 | -1.68801 | 4248 ft | 197 kts | 212° |
| 2026-04-12 11:27 | 43.44686 | -1.69690 | 3970 ft | 195 kts | 212° |
| 2026-04-12 11:27 | 43.43507 | -1.70565 | 3701 ft | 190 kts | 212° |
| 2026-04-12 11:27 | 43.42356 | -1.71426 | 3438 ft | 186 kts | 213° |
| 2026-04-12 11:27 | 43.41237 | -1.72313 | 3015 ft | 190 kts | 219° |
| 2026-04-12 11:28 | 43.40160 | -1.73535 | 2245 ft | 208 kts | 219° |
| 2026-04-12 11:28 | 43.39119 | -1.74821 | 1813 ft | 192 kts | 233° |
| 2026-04-12 11:28 | 43.38710 | -1.76208 | 1869 ft | 146 kts | 309° |
| 2026-04-12 11:28 | 43.39261 | -1.75923 | 438 ft | 164 kts | 102° |
| 2026-04-12 11:29 | 43.38666 | -1.75335 | 261 ft | 142 kts | 231° |
| 2026-04-12 11:29 | 43.38186 | -1.76212 | 879 ft | 62 kts | 240° |
| 2026-04-12 11:29 | 43.38096 | -1.76875 | 9 ft | 71 kts | 262° |
| 2026-04-12 11:29 | 43.38085 | -1.77167 | 6 ft | 10 kts | 271° |
| 2026-04-12 11:30 | 43.38099 | -1.77259 | 7 ft | 9 kts | 303° |
| 2026-04-12 11:30 | 43.38134 | -1.77219 | 6 ft | 10 kts | 114° |
| 2026-04-12 11:30 | 43.35697 | -1.79170 | 16 ft | 1 kts | 40° |
| 2026-04-12 11:30 | 43.35698 | -1.79170 | 16 ft | 0 kts | 40° |